Station Historical Data
 
Daily Summary for January 18, 2018 Units:  English    Metric   Both
« Previous Day
Next Day »
Daily Weekly Monthly Yearly Custom
  Current: High: Low: Average:
Temperature: 17.1 °F 17.5 °F 13.4 °F 15.7 °F
Dew Point: 12.6 °F 12.6 °F 7.2 °F 9.5 °F
Humidity: 82% 82% 70% 76%
Wind Speed: 9.0mph 17.0mph 3.0mph 9.4mph
Wind Gust: 25.0mph 27.0mph - -
WindSSW - - SW
Pressure: 30.11 in 30.17 in 30.10 in -
Precipitation: 0.00 in      
Historical Graphs
 
 
Tabular Data for January 18, 2018
Time Temperature Dew Point Pressure Wind Wind Speed Wind Gust Humidity Rainfall Rate (Hourly)
00:04 15.5 °F 9.9 °F 30.17 in SW 10.0 mph 20.0 mph 78% 0.00 in
00:09 15.4 °F 9.8 °F 30.17 in SW 10.0 mph 20.0 mph 78% 0.00 in
00:14 15.5 °F 9.9 °F 30.17 in WSW 10.0 mph 19.0 mph 78% 0.00 in
00:19 15.5 °F 9.9 °F 30.17 in SSW 7.0 mph 16.0 mph 78% 0.00 in
00:24 15.4 °F 9.5 °F 30.17 in ESE 10.0 mph 17.0 mph 77% 0.00 in
00:29 15.2 °F 9.3 °F 30.16 in SW 4.0 mph 19.0 mph 77% 0.00 in
00:34 15.2 °F 9.3 °F 30.16 in SSE 6.0 mph 20.0 mph 77% 0.00 in
00:39 15.1 °F 9.2 °F 30.16 in SSW 7.0 mph 20.0 mph 77% 0.00 in
00:44 15.1 °F 9.2 °F 30.16 in SSW 7.0 mph 17.0 mph 77% 0.00 in
00:49 15.0 °F 8.8 °F 30.15 in SSW 7.0 mph 19.0 mph 76% 0.00 in
00:54 14.7 °F 8.5 °F 30.15 in SSW 7.0 mph 19.0 mph 76% 0.00 in
00:59 14.6 °F 8.4 °F 30.15 in SSW 7.0 mph 16.0 mph 76% 0.00 in
01:04 14.5 °F 8.3 °F 30.15 in SW 7.0 mph 15.0 mph 76% 0.00 in
01:09 14.4 °F 8.2 °F 30.15 in SSW 7.0 mph 15.0 mph 76% 0.00 in
01:14 14.2 °F 8.0 °F 30.14 in SW 4.0 mph 13.0 mph 76% 0.00 in
01:19 14.1 °F 7.9 °F 30.14 in SW 5.0 mph 14.0 mph 76% 0.00 in
01:24 14.0 °F 7.8 °F 30.14 in SSW 8.0 mph 12.0 mph 76% 0.00 in
01:29 13.9 °F 7.7 °F 30.14 in SW 3.0 mph 14.0 mph 76% 0.00 in
01:34 13.8 °F 7.6 °F 30.14 in SW 9.0 mph 15.0 mph 76% 0.00 in
01:39 13.8 °F 7.6 °F 30.14 in South 5.0 mph 14.0 mph 76% 0.00 in
01:44 13.6 °F 7.4 °F 30.14 in SW 7.0 mph 16.0 mph 76% 0.00 in
01:49 13.5 °F 7.3 °F 30.14 in SW 7.0 mph 16.0 mph 76% 0.00 in
01:54 13.5 °F 7.3 °F 30.14 in SW 6.0 mph 15.0 mph 76% 0.00 in
01:59 13.4 °F 7.2 °F 30.14 in SW 6.0 mph 13.0 mph 76% 0.00 in
02:04 13.5 °F 7.3 °F 30.14 in SW 7.0 mph 16.0 mph 76% 0.00 in
02:09 13.9 °F 7.7 °F 30.14 in South 8.0 mph 15.0 mph 76% 0.00 in
02:14 14.2 °F 7.7 °F 30.13 in SW 8.0 mph 17.0 mph 75% 0.00 in
02:19 14.4 °F 7.6 °F 30.13 in SW 14.0 mph 15.0 mph 74% 0.00 in
02:24 14.6 °F 7.8 °F 30.13 in South 7.0 mph 14.0 mph 74% 0.00 in
02:29 14.7 °F 7.6 °F 30.13 in SW 9.0 mph 15.0 mph 73% 0.00 in
02:34 14.8 °F 7.4 °F 30.13 in SW 14.0 mph 17.0 mph 72% 0.00 in
02:39 15.0 °F 7.6 °F 30.13 in WSW 9.0 mph 15.0 mph 72% 0.00 in
02:44 15.1 °F 7.7 °F 30.13 in WSW 6.0 mph 18.0 mph 72% 0.00 in
02:49 15.1 °F 7.7 °F 30.14 in SW 7.0 mph 14.0 mph 72% 0.00 in
02:54 15.2 °F 7.5 °F 30.14 in SW 9.0 mph 18.0 mph 71% 0.00 in
02:59 15.2 °F 7.5 °F 30.14 in SW 8.0 mph 18.0 mph 71% 0.00 in
03:04 15.3 °F 7.6 °F 30.13 in SW 8.0 mph 18.0 mph 71% 0.00 in
03:09 15.5 °F 7.5 °F 30.14 in SW 10.0 mph 18.0 mph 70% 0.00 in
03:14 15.7 °F 7.6 °F 30.14 in SW 9.0 mph 17.0 mph 70% 0.00 in
03:19 15.7 °F 7.6 °F 30.14 in SW 9.0 mph 17.0 mph 70% 0.00 in
03:24 15.8 °F 7.7 °F 30.14 in WSW 10.0 mph 19.0 mph 70% 0.00 in
03:29 15.9 °F 7.8 °F 30.14 in WSW 10.0 mph 17.0 mph 70% 0.00 in
03:34 15.9 °F 7.8 °F 30.13 in SW 17.0 mph 17.0 mph 70% 0.00 in
03:39 15.9 °F 8.2 °F 30.13 in WSW 13.0 mph 20.0 mph 71% 0.00 in
03:44 15.9 °F 8.2 °F 30.13 in SW 10.0 mph 20.0 mph 71% 0.00 in
03:49 15.8 °F 8.1 °F 30.13 in SW 11.0 mph 20.0 mph 71% 0.00 in
03:54 15.9 °F 8.5 °F 30.13 in SW 9.0 mph 20.0 mph 72% 0.00 in
03:59 16.1 °F 8.7 °F 30.13 in WSW 9.0 mph 18.0 mph 72% 0.00 in
04:04 16.2 °F 9.1 °F 30.13 in WSW 6.0 mph 19.0 mph 73% 0.00 in
04:14 16.5 °F 10.0 °F 30.12 in WSW 9.0 mph 18.0 mph 75% 0.00 in
04:19 16.9 °F 10.6 °F 30.12 in WSW 11.0 mph 19.0 mph 76% 0.00 in
04:24 17.1 °F 10.8 °F 30.12 in WSW 9.0 mph 18.0 mph 76% 0.00 in
04:29 17.1 °F 10.8 °F 30.12 in WSW 10.0 mph 18.0 mph 76% 0.00 in
04:34 17.3 °F 11.0 °F 30.12 in SW 11.0 mph 23.0 mph 76% 0.00 in
04:39 17.3 °F 11.3 °F 30.12 in WSW 17.0 mph 21.0 mph 77% 0.00 in
04:44 17.4 °F 11.4 °F 30.11 in SW 9.0 mph 19.0 mph 77% 0.00 in
04:49 17.5 °F 11.5 °F 30.11 in SSW 10.0 mph 21.0 mph 77% 0.00 in
04:54 17.4 °F 11.7 °F 30.11 in West 15.0 mph 23.0 mph 78% 0.00 in
04:59 17.4 °F 12.0 °F 30.11 in WSW 13.0 mph 23.0 mph 79% 0.00 in
05:04 17.2 °F 12.1 °F 30.11 in WSW 13.0 mph 22.0 mph 80% 0.00 in
05:09 17.2 °F 12.1 °F 30.10 in WSW 12.0 mph 21.0 mph 80% 0.00 in
05:14 17.2 °F 12.1 °F 30.10 in SSW 7.0 mph 24.0 mph 80% 0.00 in
05:19 17.2 °F 12.4 °F 30.10 in SW 11.0 mph 22.0 mph 81% 0.00 in
05:24 17.1 °F 12.3 °F 30.10 in SW 11.0 mph 20.0 mph 81% 0.00 in
05:29 17.0 °F 12.2 °F 30.10 in WSW 12.0 mph 24.0 mph 81% 0.00 in
05:34 17.0 °F 12.2 °F 30.10 in WSW 12.0 mph 25.0 mph 81% 0.00 in
05:39 17.0 °F 12.2 °F 30.10 in WSW 13.0 mph 25.0 mph 81% 0.00 in
05:44 17.0 °F 12.5 °F 30.10 in WSW 13.0 mph 25.0 mph 82% 0.00 in
05:49 17.1 °F 12.6 °F 30.10 in WSW 14.0 mph 27.0 mph 82% 0.00 in
05:54 17.1 °F 12.3 °F 30.10 in SW 14.0 mph 26.0 mph 81% 0.00 in
05:59 17.0 °F 12.5 °F 30.11 in WSW 13.0 mph 26.0 mph 82% 0.00 in
06:04 17.1 °F 12.6 °F 30.11 in WSW 13.0 mph 24.0 mph 82% 0.00 in
06:09 17.1 °F 12.6 °F 30.11 in SW 11.0 mph 27.0 mph 82% 0.00 in
06:14 17.1 °F 12.6 °F 30.11 in WSW 10.0 mph 23.0 mph 82% 0.00 in
06:19 17.2 °F 12.6 °F 30.11 in WSW 11.0 mph 22.0 mph 82% 0.00 in
06:24 17.1 °F 12.6 °F 30.11 in SSW 9.0 mph 25.0 mph 82% 0.00 in
Buffalo, New York, USA
Compliments of Weather Underground - 1.5 mb